首页
METAR-TAF:

METAR-TAF

机场 :

比萨-圣朱斯托机场

比萨, 意大利

纬度: 43-41N, 经度: 010-23E, 海拔: 2米

当前天气观测

该预报发布于20分钟前的06:45 UTC
风速5节,风向东转东南
温度 2°C
湿度 80%
气压 1015 hPa
能见度10公里或以上
1500米以下无云,无积雨云

METAR: LIRP 020645Z 11005KT CAVOK 02/M01 Q1015 NOSIG

时间: 09:05 (07:05 UTC)

预报

该预报发布于2小时和5分钟前的05:00 UTC
预报有效从02日的 06点(UTC)到 03日的 06点(UTC)
风速7节,风向东转东南
能见度10公里或以上
1500米以下无云,无积雨云
短暂存在
从 02日的 15点(UTC)到 02日的 20点(UTC)
风速8节,风向西转西北

TAF: LIRP 020500Z 0206/0306 11007KT CAVOK TEMPO 0215/0220 30008KT

超过4000个机场的气象观测和天气预报(METAR&TAF报告)。

可查询的气象台以黄色和红色小点在地图上表示。

将鼠标移到小点上方,可查看气象台名称。

然后点击查看天气观测和预报。

如需切换地图:点击带黑十字的绿色按钮放大地图;点击带横线的绿色按钮缩小地图;或者点击绿色箭头查看邻近地区的地图。


METAR-TAF: